Royal Prince — WCX8037 — position and weather

sailwx.info

Track history (hours):
 
Tides and Currents Weather Stations Pressure Air Temp Water Temp Dewpoint Dewpoint Depression Visibility Wind Speed Wind Dir Waves Ship Positions

Royal Prince

Owner: Golden Gate Scenic Steamship Corp, SAN FRANCISCO, CA. More information available from US FCC via Universal Licensing System and Coast Guard Vessel Documentation Center.

Last reported at 2015-Apr-19 01:34 UTC. Time now 2015-Apr-19 19:07 UTC.
Position N 37°49' W 122°25'.

Length 28 m; draft 2.3 m.

Type: Passenger vessel. MMSI: 366975760.

Date/timePositionNaut miles runAvg speedWind from/ knotsBaromVisibWave heightAir tempDewpointWater temp
2015-Apr-19 01:34N 37°49' W 122°25'3 3.5
2015-Apr-19 00:33N 37°49' W 122°29'3 3.4
2015-Apr-18 23:34N 37°50' W 122°25'1 1.0
2015-Apr-18 22:34N 37°49' W 122°25'0 0.0
2015-Apr-18 21:33N 37°49' W 122°25'3 3.0
2015-Apr-18 20:34N 37°49' W 122°29'3 3.0
2015-Apr-18 19:34N 37°49' W 122°25'2 1.9
2015-Apr-18 18:33N 37°49' W 122°27'1 0.6
2015-Apr-18 17:33N 37°50' W 122°28'2 0.1
2015-Apr-18 01:33N 37°49' W 122°25'3 3.1
2015-Apr-18 00:33N 37°49' W 122°29'2 2.3
2015-Apr-17 23:33N 37°50' W 122°26'1 1.4
2015-Apr-17 22:33N 37°49' W 122°25'0 0.1
2015-Apr-17 21:33N 37°49' W 122°25'2 2.1
2015-Apr-17 20:33N 37°49' W 122°28'2 2.1
2015-Apr-17 19:33N 37°49' W 122°25'2 1.9
2015-Apr-17 18:33N 37°49' W 122°27'1 0.8
2015-Apr-17 17:33N 37°49' W 122°28'3 0.2
2015-Apr-17 03:08N 37°49' W 122°25'3 5.5
2015-Apr-17 02:33N 37°49' W 122°29'3 3.4
2015-Apr-17 01:33N 37°50' W 122°25'2 1.6
2015-Apr-17 00:33N 37°49' W 122°25'0 0.0
2015-Apr-16 23:33N 37°49' W 122°25'1 0.5
2015-Apr-16 22:33N 37°49' W 122°24'3 2.9
2015-Apr-16 21:33N 37°49' W 122°28'4 4.1
2015-Apr-16 20:33N 37°48' W 122°23'2 1.9
2015-Apr-16 19:33N 37°49' W 122°25'0 0.0
2015-Apr-16 03:06N 37°49' W 122°25'3 4.9
2015-Apr-16 02:33N 37°49' W 122°28'4 3.6
2015-Apr-16 01:33N 37°51' W 122°25'3 2.7
2015-Apr-16 00:33N 37°49' W 122°25'0 0.0
2015-Apr-15 23:33N 37°49' W 122°25'0 0.2
2015-Apr-15 22:33N 37°49' W 122°25'3 2.9
2015-Apr-15 21:34N 37°49' W 122°28'4 3.7
2015-Apr-15 20:33N 37°49' W 122°24'1 1.0
2015-Apr-15 19:33N 37°49' W 122°25'2 2.0
2015-Apr-15 18:33N 37°49' W 122°27'1 0.7
2015-Apr-15 17:33N 37°49' W 122°28'3 0.2
2015-Apr-15 03:06N 37°49' W 122°25'3 5.3
2015-Apr-15 02:33N 37°49' W 122°29'3 3.5
2015-Apr-15 01:33N 37°51' W 122°25'3 2.6
2015-Apr-15 00:33N 37°49' W 122°25'0 0.0
2015-Apr-14 23:33N 37°49' W 122°25'1 0.6
2015-Apr-14 22:33N 37°49' W 122°24'3 3.1
2015-Apr-14 21:33N 37°49' W 122°28'4 4.2
2015-Apr-14 20:33N 37°48' W 122°23'2 1.7
2015-Apr-14 19:33N 37°49' W 122°25'0 0.0
2015-Apr-14 18:33N 37°49' W 122°25'0 0.0
2015-Apr-14 17:33N 37°49' W 122°25'0 0.0
2015-Apr-14 16:33N 37°49' W 122°25'0 0.0
2015-Apr-14 15:33N 37°49' W 122°25'0 0.0
2015-Apr-14 03:33N 37°49' W 122°25'3 3.1
2015-Apr-14 02:33N 37°49' W 122°29'4 3.6
2015-Apr-14 01:33N 37°51' W 122°25'3 2.6
2015-Apr-14 00:33N 37°49' W 122°25'0 0.0
2015-Apr-13 23:33N 37°49' W 122°25'1 0.7
2015-Apr-13 22:33N 37°49' W 122°24'3 3.0
2015-Apr-13 21:33N 37°49' W 122°28'4 4.3
2015-Apr-13 20:33N 37°48' W 122°23'2 2.0
2015-Apr-13 19:33N 37°49' W 122°25'0 0.0
2015-Apr-13 03:34N 37°49' W 122°25'3 3.1
2015-Apr-13 02:34N 37°49' W 122°29'3 3.3
2015-Apr-13 01:33N 37°51' W 122°25'2 2.3
2015-Apr-13 00:33N 37°49' W 122°25'0 0.0
2015-Apr-12 23:34N 37°49' W 122°25'1 1.4
2015-Apr-12 22:33N 37°48' W 122°23'3 3.0
2015-Apr-12 21:33N 37°49' W 122°27'4 3.6
2015-Apr-12 20:33N 37°48' W 122°23'2 2.0
2015-Apr-12 19:33N 37°49' W 122°25'0 0.0
2015-Apr-12 01:21N 37°49' W 122°25'2 2.7
2015-Apr-12 00:33N 37°49' W 122°28'1 1.5
2015-Apr-11 23:33N 37°50' W 122°26'1 1.3
2015-Apr-11 22:34N 37°49' W 122°25'0 0.0
2015-Apr-11 21:33N 37°49' W 122°25'3 3.1
2015-Apr-11 20:34N 37°49' W 122°29'3 3.1
2015-Apr-11 19:33N 37°49' W 122°25'3 2.8
2015-Apr-11 18:33N 37°49' W 122°28'1 1.2
2015-Apr-11 17:34N 37°50' W 122°27'2 1.9
2015-Apr-11 16:33N 37°49' W 122°25'0 0.0
2015-Apr-11 01:11N 37°49' W 122°25'3 4.8
2015-Apr-11 00:34N 37°49' W 122°29'2 2.1
2015-Apr-10 23:33N 37°50' W 122°26'1 1.5
2015-Apr-10 22:33N 37°49' W 122°25'0 0.0
2015-Apr-10 21:33N 37°49' W 122°25'2 2.3
2015-Apr-10 20:33N 37°49' W 122°28'2 2.3
2015-Apr-10 19:33N 37°49' W 122°25'2 2.4
2015-Apr-10 18:33N 37°49' W 122°28'1 0.7
2015-Apr-10 17:33N 37°49' W 122°27'2 0.2
2015-Apr-10 03:08N 37°49' W 122°25'3 5.2
2015-Apr-10 02:33N 37°49' W 122°29'4 3.6
2015-Apr-10 01:33N 37°51' W 122°25'2 2.0
2015-Apr-10 00:33N 37°49' W 122°25'0 0.0
2015-Apr-09 23:33N 37°49' W 122°25'1 0.6
2015-Apr-09 22:33N 37°49' W 122°24'2 2.4
2015-Apr-09 21:33N 37°49' W 122°27'4 3.7
2015-Apr-09 20:33N 37°48' W 122°23'2 1.8
2015-Apr-09 19:33N 37°49' W 122°25'  
Track history (hours):
 
Tides and Currents Weather Stations Pressure Air Temp Water Temp Dewpoint Dewpoint Depression Visibility Wind Speed Wind Dir Waves Ship Positions

Royal Prince

Owner: Golden Gate Scenic Steamship Corp, SAN FRANCISCO, CA. More information available from US FCC via Universal Licensing System and Coast Guard Vessel Documentation Center.

Last reported at 2015-Apr-19 01:34 UTC. Time now 2015-Apr-19 19:07 UTC.
Position N 37°49' W 122°25'.

Length 28 m; draft 2.3 m.

Type: Passenger vessel. MMSI: 366975760.

Date/timePositionNaut miles runAvg speedWind from/ knotsBaromVisibWave heightAir tempDewpointWater temp
2015-Apr-19 01:34N 37°49' W 122°25'3 3.5
2015-Apr-19 00:33N 37°49' W 122°29'3 3.4
2015-Apr-18 23:34N 37°50' W 122°25'1 1.0
2015-Apr-18 22:34N 37°49' W 122°25'0 0.0
2015-Apr-18 21:33N 37°49' W 122°25'3 3.0
2015-Apr-18 20:34N 37°49' W 122°29'3 3.0
2015-Apr-18 19:34N 37°49' W 122°25'2 1.9
2015-Apr-18 18:33N 37°49' W 122°27'1 0.6
2015-Apr-18 17:33N 37°50' W 122°28'2 0.1
2015-Apr-18 01:33N 37°49' W 122°25'3 3.1
2015-Apr-18 00:33N 37°49' W 122°29'2 2.3
2015-Apr-17 23:33N 37°50' W 122°26'1 1.4
2015-Apr-17 22:33N 37°49' W 122°25'0 0.1
2015-Apr-17 21:33N 37°49' W 122°25'2 2.1
2015-Apr-17 20:33N 37°49' W 122°28'2 2.1
2015-Apr-17 19:33N 37°49' W 122°25'2 1.9
2015-Apr-17 18:33N 37°49' W 122°27'1 0.8
2015-Apr-17 17:33N 37°49' W 122°28'3 0.2
2015-Apr-17 03:08N 37°49' W 122°25'3 5.5
2015-Apr-17 02:33N 37°49' W 122°29'3 3.4
2015-Apr-17 01:33N 37°50' W 122°25'2 1.6
2015-Apr-17 00:33N 37°49' W 122°25'0 0.0
2015-Apr-16 23:33N 37°49' W 122°25'1 0.5
2015-Apr-16 22:33N 37°49' W 122°24'3 2.9
2015-Apr-16 21:33N 37°49' W 122°28'4 4.1
2015-Apr-16 20:33N 37°48' W 122°23'2 1.9
2015-Apr-16 19:33N 37°49' W 122°25'0 0.0
2015-Apr-16 03:06N 37°49' W 122°25'3 4.9
2015-Apr-16 02:33N 37°49' W 122°28'4 3.6
2015-Apr-16 01:33N 37°51' W 122°25'3 2.7
2015-Apr-16 00:33N 37°49' W 122°25'0 0.0
2015-Apr-15 23:33N 37°49' W 122°25'0 0.2
2015-Apr-15 22:33N 37°49' W 122°25'3 2.9
2015-Apr-15 21:34N 37°49' W 122°28'4 3.7
2015-Apr-15 20:33N 37°49' W 122°24'1 1.0
2015-Apr-15 19:33N 37°49' W 122°25'2 2.0
2015-Apr-15 18:33N 37°49' W 122°27'1 0.7
2015-Apr-15 17:33N 37°49' W 122°28'3 0.2
2015-Apr-15 03:06N 37°49' W 122°25'3 5.3
2015-Apr-15 02:33N 37°49' W 122°29'3 3.5
2015-Apr-15 01:33N 37°51' W 122°25'3 2.6
2015-Apr-15 00:33N 37°49' W 122°25'0 0.0
2015-Apr-14 23:33N 37°49' W 122°25'1 0.6
2015-Apr-14 22:33N 37°49' W 122°24'3 3.1
2015-Apr-14 21:33N 37°49' W 122°28'4 4.2
2015-Apr-14 20:33N 37°48' W 122°23'2 1.7
2015-Apr-14 19:33N 37°49' W 122°25'0 0.0
2015-Apr-14 18:33N 37°49' W 122°25'0 0.0
2015-Apr-14 17:33N 37°49' W 122°25'0 0.0
2015-Apr-14 16:33N 37°49' W 122°25'0 0.0
2015-Apr-14 15:33N 37°49' W 122°25'0 0.0
2015-Apr-14 03:33N 37°49' W 122°25'3 3.1
2015-Apr-14 02:33N 37°49' W 122°29'4 3.6
2015-Apr-14 01:33N 37°51' W 122°25'3 2.6
2015-Apr-14 00:33N 37°49' W 122°25'0 0.0
2015-Apr-13 23:33N 37°49' W 122°25'1 0.7
2015-Apr-13 22:33N 37°49' W 122°24'3 3.0
2015-Apr-13 21:33N 37°49' W 122°28'4 4.3
2015-Apr-13 20:33N 37°48' W 122°23'2 2.0
2015-Apr-13 19:33N 37°49' W 122°25'0 0.0
2015-Apr-13 03:34N 37°49' W 122°25'3 3.1
2015-Apr-13 02:34N 37°49' W 122°29'3 3.3
2015-Apr-13 01:33N 37°51' W 122°25'2 2.3
2015-Apr-13 00:33N 37°49' W 122°25'0 0.0
2015-Apr-12 23:34N 37°49' W 122°25'1 1.4
2015-Apr-12 22:33N 37°48' W 122°23'3 3.0
2015-Apr-12 21:33N 37°49' W 122°27'4 3.6
2015-Apr-12 20:33N 37°48' W 122°23'2 2.0
2015-Apr-12 19:33N 37°49' W 122°25'0 0.0
2015-Apr-12 01:21N 37°49' W 122°25'2 2.7
2015-Apr-12 00:33N 37°49' W 122°28'1 1.5
2015-Apr-11 23:33N 37°50' W 122°26'1 1.3
2015-Apr-11 22:34N 37°49' W 122°25'0 0.0
2015-Apr-11 21:33N 37°49' W 122°25'3 3.1
2015-Apr-11 20:34N 37°49' W 122°29'3 3.1
2015-Apr-11 19:33N 37°49' W 122°25'3 2.8
2015-Apr-11 18:33N 37°49' W 122°28'1 1.2
2015-Apr-11 17:34N 37°50' W 122°27'2 1.9
2015-Apr-11 16:33N 37°49' W 122°25'0 0.0
2015-Apr-11 01:11N 37°49' W 122°25'3 4.8
2015-Apr-11 00:34N 37°49' W 122°29'2 2.1
2015-Apr-10 23:33N 37°50' W 122°26'1 1.5
2015-Apr-10 22:33N 37°49' W 122°25'0 0.0
2015-Apr-10 21:33N 37°49' W 122°25'2 2.3
2015-Apr-10 20:33N 37°49' W 122°28'2 2.3
2015-Apr-10 19:33N 37°49' W 122°25'2 2.4
2015-Apr-10 18:33N 37°49' W 122°28'1 0.7
2015-Apr-10 17:33N 37°49' W 122°27'2 0.2
2015-Apr-10 03:08N 37°49' W 122°25'3 5.2
2015-Apr-10 02:33N 37°49' W 122°29'4 3.6
2015-Apr-10 01:33N 37°51' W 122°25'2 2.0
2015-Apr-10 00:33N 37°49' W 122°25'0 0.0
2015-Apr-09 23:33N 37°49' W 122°25'1 0.6
2015-Apr-09 22:33N 37°49' W 122°24'2 2.4
2015-Apr-09 21:33N 37°49' W 122°27'4 3.7
2015-Apr-09 20:33N 37°48' W 122°23'2 1.8
2015-Apr-09 19:33N 37°49' W 122°25'  

Dump ship's entire track history